Time;durP1;ratioP1;P1;durP2;ratioP2;P2;SDS_P1;SDS_P2;PMS_P1;PMS_P2;Temp;Humidity;BMP_temperature;BMP_pressure;BME280_temperature;BME280_humidity;BME280_pressure;Samples;Min_cycle;Max_cycle;Signal;HPM_P1;HPM_P2
2021/12/16 00:01:51;;;;;;;9.43;3.70;;;25.70;99.90;;;;;;4972599;28;20190;-69
2021/12/16 00:29:39;;;;;;;5.97;3.43;;;26.30;99.90;;;;;;5031738;28;20696;-70
2021/12/16 00:32:23;;;;;;;7.00;3.17;;;26.20;99.90;;;;;;4997717;28;20243;-72
2021/12/16 00:34:47;;;;;;;6.17;3.27;;;26.30;99.90;;;;;;4992856;28;20182;-72
2021/12/16 00:37:17;;;;;;;8.30;3.70;;;26.40;99.90;;;;;;4993524;28;20218;-74
2021/12/16 00:39:45;;;;;;;10.23;4.17;;;26.30;99.90;;;;;;4994775;28;20182;-71
2021/12/16 00:42:32;;;;;;;12.53;5.30;;;26.60;99.90;;;;;;4976352;28;20237;-75
2021/12/16 00:47:50;;;;;;;5.27;2.93;;;26.90;99.90;;;;;;5008805;28;20274;-79
2021/12/16 00:54:04;;;;;;;7.10;3.53;;;26.50;99.90;;;;;;5000221;28;20287;-77
2021/12/16 00:55:56;;;;;;;5.07;3.10;;;28.00;99.90;;;;;;4996392;28;20281;-77
2021/12/16 00:58:35;;;;;;;9.43;4.57;;;28.10;99.90;;;;;;4993665;28;20191;-82
2021/12/16 01:01:14;;;;;;;12.43;5.03;;;27.80;99.90;;;;;;5006200;28;20257;-80
2021/12/16 01:06:43;;;;;;;9.27;4.07;;;27.00;99.90;;;;;;5018428;28;20177;-77
2021/12/16 01:09:52;;;;;;;10.33;4.40;;;26.90;99.90;;;;;;5005094;28;20261;-71
2021/12/16 01:34:34;;;;;;;13.90;4.73;;;26.60;99.90;;;;;;5011804;28;20623;-73
2021/12/16 01:37:41;;;;;;;15.43;5.10;;;26.20;99.90;;;;;;5003373;28;20296;-77
2021/12/16 01:40:20;;;;;;;14.80;5.30;;;26.00;99.90;;;;;;5008013;28;20198;-70
2021/12/16 01:50:54;;;;;;;14.90;4.93;;;25.30;99.90;;;;;;5001219;28;20235;-71
2021/12/16 01:53:49;;;;;;;13.07;4.93;;;25.40;99.90;;;;;;5001600;28;20540;-70
2021/12/16 01:56:27;;;;;;;14.27;5.27;;;25.80;99.90;;;;;;4992100;28;20191;-70
2021/12/16 01:59:01;;;;;;;11.57;4.20;;;26.10;99.90;;;;;;4992398;28;20671;-72
2021/12/16 02:01:32;;;;;;;19.83;4.70;;;26.10;99.90;;;;;;5002925;28;20182;-73
2021/12/16 02:04:38;;;;;;;9.83;4.77;;;27.20;99.90;;;;;;4998731;28;20185;-72
2021/12/16 02:09:31;;;;;;;11.07;4.40;;;28.20;99.90;;;;;;4999152;28;20269;-73
2021/12/16 02:31:51;;;;;;;10.40;3.20;;;28.00;99.90;;;;;;4993895;28;20558;-71
2021/12/16 02:36:47;;;;;;;11.83;4.13;;;28.50;99.90;;;;;;4993819;28;20240;-74
2021/12/16 02:39:28;;;;;;;9.33;3.97;;;28.60;99.90;;;;;;4993576;28;20190;-78
2021/12/16 02:42:11;;;;;;;10.73;3.40;;;28.90;99.90;;;;;;4994029;28;20270;-71
2021/12/16 02:48:29;;;;;;;10.63;3.63;;;28.60;99.90;;;;;;4993619;28;20179;-72
2021/12/16 02:50:13;;;;;;;13.87;4.47;;;28.70;99.90;;;;;;4997696;28;20267;-69
2021/12/16 02:52:41;;;;;;;9.20;3.43;;;28.50;99.90;;;;;;4997313;28;20183;-73
2021/12/16 02:55:11;;;;;;;16.40;4.43;;;27.70;99.90;;;;;;4997241;28;20208;-74
2021/12/16 02:57:59;;;;;;;11.93;3.67;;;27.20;99.90;;;;;;4997066;28;20214;-70
2021/12/16 03:00:32;;;;;;;12.17;3.57;;;27.70;99.90;;;;;;4995611;28;20186;-71
2021/12/16 03:03:00;;;;;;;13.23;3.90;;;27.20;99.90;;;;;;4995259;28;20236;-72
2021/12/16 03:05:28;;;;;;;12.90;3.80;;;27.70;99.90;;;;;;4994979;28;20175;-71
2021/12/16 03:07:56;;;;;;;17.70;3.97;;;27.50;99.90;;;;;;4994641;28;20171;-71
2021/12/16 03:10:58;;;;;;;13.03;3.83;;;27.10;99.90;;;;;;4977615;28;20183;-70
2021/12/16 03:13:29;;;;;;;16.77;3.53;;;27.80;99.90;;;;;;4995086;28;20282;-72
2021/12/16 03:19:16;;;;;;;18.37;4.23;;;27.40;99.90;;;;;;4918341;29;20742;-70
2021/12/16 03:21:48;;;;;;;14.17;3.60;;;27.40;99.90;;;;;;4987118;28;20241;-70
2021/12/16 03:37:19;;;;;;;14.33;3.60;;;27.70;99.90;;;;;;4997173;28;20219;-75
2021/12/16 03:40:02;;;;;;;14.27;4.27;;;27.90;99.90;;;;;;4996938;28;20185;-70
2021/12/16 03:42:48;;;;;;;13.17;3.83;;;27.20;99.90;;;;;;4979531;28;20183;-73
2021/12/16 03:48:22;;;;;;;16.57;4.47;;;25.90;99.90;;;;;;4996809;28;20194;-71
2021/12/16 03:50:50;;;;;;;13.37;3.43;;;25.60;99.90;;;;;;4996308;28;20547;-73
2021/12/16 03:53:18;;;;;;;15.40;4.10;;;25.40;99.90;;;;;;4978939;28;20636;-70
2021/12/16 03:55:47;;;;;;;13.50;3.80;;;25.20;99.90;;;;;;4978497;28;20273;-74
2021/12/16 03:58:16;;;;;;;15.57;4.47;;;25.10;99.90;;;;;;4995435;28;20218;-72
2021/12/16 04:00:52;;;;;;;16.47;3.63;;;25.30;99.90;;;;;;4996259;28;20188;-71
2021/12/16 04:03:21;;;;;;;13.23;3.63;;;25.30;99.90;;;;;;4996108;28;20650;-70
2021/12/16 04:05:49;;;;;;;13.17;3.67;;;25.40;99.90;;;;;;4978444;28;20196;-75
2021/12/16 04:08:18;;;;;;;13.33;4.40;;;25.40;99.90;;;;;;4996164;28;20687;-72
2021/12/16 04:11:00;;;;;;;15.03;4.23;;;25.80;99.90;;;;;;4978425;28;20179;-74
2021/12/16 04:13:28;;;;;;;16.17;3.73;;;26.00;99.90;;;;;;4996064;28;20224;-74
2021/12/16 04:15:56;;;;;;;12.97;3.30;;;26.10;99.90;;;;;;4995755;28;20179;-72
2021/12/16 04:18:23;;;;;;;13.80;3.37;;;25.90;99.90;;;;;;4995824;28;20193;-74
2021/12/16 04:20:51;;;;;;;12.40;3.23;;;25.60;99.90;;;;;;4995715;28;20170;-73
2021/12/16 04:23:19;;;;;;;12.90;3.00;;;25.50;99.90;;;;;;4995792;28;20189;-71
2021/12/16 04:25:48;;;;;;;19.70;3.83;;;25.20;99.90;;;;;;4995618;28;20175;-73
2021/12/16 04:28:26;;;;;;;16.93;3.33;;;25.40;99.90;;;;;;4995609;28;20182;-76
2021/12/16 04:30:54;;;;;;;14.97;3.90;;;25.40;99.90;;;;;;4995465;28;20611;-79
2021/12/16 04:33:22;;;;;;;15.37;3.20;;;25.20;99.90;;;;;;4995549;28;20182;-77
2021/12/16 04:35:50;;;;;;;16.20;3.40;;;25.00;99.90;;;;;;4977906;28;20178;-78
2021/12/16 04:38:18;;;;;;;11.60;2.97;;;25.00;99.90;;;;;;4995511;28;20225;-76
2021/12/16 04:40:48;;;;;;;12.07;2.67;;;24.70;99.90;;;;;;4995582;28;20179;-78
2021/12/16 04:43:21;;;;;;;12.10;2.67;;;24.70;99.90;;;;;;4995356;28;20190;-78
2021/12/16 04:45:50;;;;;;;12.00;3.10;;;24.60;99.90;;;;;;4994143;28;20193;-78
2021/12/16 04:48:19;;;;;;;16.03;3.27;;;24.30;99.90;;;;;;4977787;28;20191;-78
2021/12/16 04:50:47;;;;;;;19.33;3.27;;;24.40;99.90;;;;;;4995165;28;20233;-78
2021/12/16 04:53:15;;;;;;;12.67;2.70;;;24.50;99.90;;;;;;4996103;28;20240;-71
2021/12/16 04:55:43;;;;;;;16.70;3.70;;;24.40;99.90;;;;;;4996269;28;20272;-72
2021/12/16 04:58:10;;;;;;;14.00;3.63;;;24.30;99.90;;;;;;5014390;28;20578;-74
2021/12/16 05:00:38;;;;;;;14.03;3.47;;;23.60;99.90;;;;;;5001500;28;20182;-71
2021/12/16 05:03:06;;;;;;;12.27;3.70;;;23.40;99.90;;;;;;5009102;28;20550;-71
2021/12/16 05:05:34;;;;;;;18.60;3.20;;;23.30;99.90;;;;;;4993473;28;20186;-71
2021/12/16 05:08:02;;;;;;;14.10;3.53;;;23.10;99.90;;;;;;4993197;28;20182;-71
2021/12/16 05:10:30;;;;;;;14.93;2.63;;;22.90;99.90;;;;;;4993583;28;20251;-71
2021/12/16 05:12:59;;;;;;;12.37;3.00;;;22.90;99.90;;;;;;4999190;28;20181;-71
2021/12/16 05:15:33;;;;;;;20.87;2.90;;;23.00;99.90;;;;;;5012731;28;20549;-69
2021/12/16 05:18:05;;;;;;;13.47;2.60;;;22.80;99.90;;;;;;4994804;28;20260;-71
2021/12/16 05:20:40;;;;;;;15.60;2.73;;;22.80;99.90;;;;;;5012733;28;20220;-70
2021/12/16 05:28:29;;;;;;;12.30;2.93;;;22.70;99.90;;;;;;4992996;28;20186;-70
2021/12/16 05:30:57;;;;;;;12.83;3.27;;;22.80;99.90;;;;;;4994018;28;20743;-70
2021/12/16 05:33:26;;;;;;;7.70;2.57;;;22.70;99.90;;;;;;5002361;28;20564;-71
2021/12/16 05:35:54;;;;;;;12.97;3.27;;;22.70;99.90;;;;;;4992206;28;20703;-69
2021/12/16 05:38:23;;;;;;;9.00;3.20;;;22.60;99.90;;;;;;4975320;28;20274;-71
2021/12/16 05:40:52;;;;;;;11.67;2.73;;;22.70;99.90;;;;;;4992774;28;20694;-70
2021/12/16 05:43:23;;;;;;;16.20;2.97;;;22.70;99.90;;;;;;5001296;28;20206;-70
2021/12/16 05:45:53;;;;;;;15.63;3.10;;;22.60;99.90;;;;;;5012427;28;20216;-69
2021/12/16 05:48:26;;;;;;;17.03;3.33;;;22.50;99.90;;;;;;5012304;28;20177;-72
2021/12/16 05:51:00;;;;;;;23.23;3.77;;;22.60;99.90;;;;;;4994600;28;20283;-72
2021/12/16 05:53:29;;;;;;;16.17;3.50;;;22.80;99.90;;;;;;5002190;28;20192;-71
2021/12/16 05:55:56;;;;;;;14.37;2.80;;;22.70;99.90;;;;;;4992196;28;20552;-73
2021/12/16 05:58:25;;;;;;;15.43;3.10;;;22.60;99.90;;;;;;4984475;28;20309;-72
2021/12/16 06:01:03;;;;;;;14.27;2.90;;;22.60;99.90;;;;;;4982521;28;20659;-70
2021/12/16 06:03:31;;;;;;;12.40;3.07;;;22.30;99.90;;;;;;4991291;28;20178;-70
2021/12/16 06:06:00;;;;;;;8.17;2.77;;;22.30;99.90;;;;;;4992346;28;20229;-68
2021/12/16 06:08:28;;;;;;;13.50;2.90;;;22.20;99.90;;;;;;5002587;28;20190;-72
2021/12/16 06:13:46;;;;;;;13.07;3.10;;;22.20;99.90;;;;;;5011813;28;20547;-73
2021/12/16 06:27:21;;;;;;;7.90;2.40;;;21.90;99.90;;;;;;4999519;28;20560;-70
2021/12/16 06:29:50;;;;;;;17.03;3.57;;;21.90;99.90;;;;;;4998541;28;20280;-71
2021/12/16 06:32:18;;;;;;;13.37;3.37;;;21.80;99.90;;;;;;4998647;28;20187;-73
2021/12/16 06:34:46;;;;;;;13.90;2.90;;;21.80;99.90;;;;;;4998592;28;20187;-71
2021/12/16 06:37:15;;;;;;;15.30;2.90;;;21.70;99.90;;;;;;4999019;28;20695;-73
2021/12/16 06:39:43;;;;;;;13.40;2.87;;;21.60;99.90;;;;;;5018178;28;20629;-72
2021/12/16 06:42:12;;;;;;;13.80;3.10;;;21.60;99.90;;;;;;5018191;28;20610;-73
2021/12/16 06:44:50;;;;;;;8.47;2.37;;;21.50;99.90;;;;;;5018114;28;20178;-71
2021/12/16 06:47:24;;;;;;;15.07;3.10;;;21.50;99.90;;;;;;4982129;28;20643;-73
2021/12/16 06:49:54;;;;;;;11.57;2.57;;;21.60;99.90;;;;;;4998372;28;20175;-70
2021/12/16 06:52:30;;;;;;;12.03;2.77;;;21.60;99.90;;;;;;4998438;28;20228;-73
2021/12/16 06:55:24;;;;;;;13.43;3.20;;;21.40;99.90;;;;;;4999377;28;20178;-70
2021/12/16 06:57:55;;;;;;;9.40;2.73;;;21.40;99.90;;;;;;4998201;28;20231;-71
2021/12/16 07:00:35;;;;;;;7.70;2.77;;;21.30;99.90;;;;;;4998332;28;20186;-71
2021/12/16 07:03:06;;;;;;;16.57;3.60;;;21.20;99.90;;;;;;4998383;28;20183;-72
2021/12/16 07:05:41;;;;;;;13.23;2.80;;;21.30;99.90;;;;;;4999618;28;20242;-72
2021/12/16 07:08:12;;;;;;;13.00;2.77;;;21.30;99.90;;;;;;5000315;28;20212;-73
2021/12/16 07:10:45;;;;;;;13.03;3.10;;;21.40;99.90;;;;;;5018028;28;20182;-71
2021/12/16 07:13:29;;;;;;;8.90;2.63;;;21.20;99.90;;;;;;5017436;28;20200;-72
2021/12/16 07:15:58;;;;;;;10.00;3.00;;;21.30;99.90;;;;;;5005266;28;20272;-70
2021/12/16 07:18:26;;;;;;;9.97;2.90;;;21.40;99.90;;;;;;5017729;28;20740;-71
2021/12/16 07:20:54;;;;;;;11.03;2.37;;;21.30;99.90;;;;;;5017877;28;20180;-71
2021/12/16 07:23:22;;;;;;;12.57;2.90;;;21.30;99.90;;;;;;5000026;28;20222;-71
2021/12/16 07:25:50;;;;;;;14.23;2.63;;;21.30;99.90;;;;;;5017723;28;20176;-71
2021/12/16 07:28:18;;;;;;;8.23;2.37;;;21.20;99.90;;;;;;5017612;28;20184;-70
2021/12/16 07:30:47;;;;;;;9.23;2.40;;;21.20;99.90;;;;;;5017464;28;20256;-71
2021/12/16 07:33:17;;;;;;;14.47;2.73;;;21.20;99.90;;;;;;5015240;28;20256;-70
2021/12/16 07:35:46;;;;;;;11.47;2.67;;;21.20;99.90;;;;;;5013493;28;20188;-71
2021/12/16 07:38:15;;;;;;;9.07;2.67;;;21.10;99.90;;;;;;5016017;28;20216;-70
2021/12/16 07:40:45;;;;;;;12.47;2.70;;;21.10;99.90;;;;;;5015648;28;20639;-70
2021/12/16 07:43:24;;;;;;;6.63;2.33;;;21.10;99.90;;;;;;5014370;28;20170;-70
2021/12/16 07:45:56;;;;;;;12.83;2.77;;;21.10;99.90;;;;;;5009604;28;20221;-71
2021/12/16 07:48:27;;;;;;;25.47;3.90;;;21.00;99.90;;;;;;5008815;28;20602;-70
2021/12/16 07:50:59;;;;;;;15.17;3.10;;;21.00;99.90;;;;;;4999480;28;20191;-69
2021/12/16 07:53:28;;;;;;;9.80;3.13;;;21.10;99.90;;;;;;4994806;28;20683;-70
2021/12/16 07:55:56;;;;;;;12.77;2.60;;;21.10;99.90;;;;;;5001891;28;20637;-69
2021/12/16 07:58:25;;;;;;;14.33;2.93;;;21.10;99.90;;;;;;5012006;28;20214;-70
2021/12/16 08:00:54;;;;;;;9.70;3.10;;;21.10;99.90;;;;;;5013966;28;20188;-70
2021/12/16 08:03:26;;;;;;;13.00;2.83;;;21.10;99.90;;;;;;5015664;28;20547;-71
2021/12/16 08:05:58;;;;;;;10.57;3.07;;;21.20;99.90;;;;;;4997774;28;20528;-70
2021/12/16 08:08:26;;;;;;;9.13;3.00;;;21.20;99.90;;;;;;4999900;28;20670;-71
2021/12/16 08:10:56;;;;;;;13.00;2.97;;;21.10;99.90;;;;;;4995635;28;20175;-70
2021/12/16 08:13:24;;;;;;;8.97;2.40;;;21.10;99.90;;;;;;4998434;28;20317;-71
2021/12/16 08:15:52;;;;;;;11.97;3.03;;;21.00;99.90;;;;;;4997458;28;20217;-70
2021/12/16 08:18:20;;;;;;;8.93;2.93;;;21.10;99.90;;;;;;5000757;28;20689;-70
2021/12/16 08:20:48;;;;;;;10.70;3.40;;;21.20;99.90;;;;;;4995512;28;20181;-71
2021/12/16 08:23:16;;;;;;;12.37;2.40;;;21.20;99.90;;;;;;4995385;28;20237;-70
2021/12/16 08:25:44;;;;;;;11.57;2.70;;;21.10;99.90;;;;;;4995779;28;20175;-71
2021/12/16 08:28:13;;;;;;;9.93;2.60;;;21.00;99.90;;;;;;4990442;28;20186;-68
2021/12/16 08:30:44;;;;;;;8.50;2.70;;;21.00;99.90;;;;;;4988348;28;20237;-69
2021/12/16 08:33:14;;;;;;;11.20;2.60;;;20.90;99.90;;;;;;5005899;28;20265;-69
2021/12/16 08:35:46;;;;;;;9.13;2.70;;;20.90;99.90;;;;;;5014854;28;20674;-70
2021/12/16 08:38:17;;;;;;;9.57;2.77;;;20.90;99.90;;;;;;5014924;28;20232;-69
2021/12/16 08:40:47;;;;;;;11.93;2.70;;;20.90;99.90;;;;;;4997252;28;20190;-70
2021/12/16 08:43:15;;;;;;;8.90;2.50;;;20.90;99.90;;;;;;4995480;28;20270;-71
2021/12/16 08:45:44;;;;;;;8.40;2.77;;;20.80;99.90;;;;;;5013621;28;20187;-72
2021/12/16 08:48:15;;;;;;;14.50;4.33;;;20.80;99.90;;;;;;5014891;28;20187;-69
2021/12/16 08:50:47;;;;;;;17.80;3.27;;;20.70;99.90;;;;;;5006211;28;20555;-70
2021/12/16 08:53:18;;;;;;;11.33;2.70;;;20.70;99.90;;;;;;4995143;28;20279;-69
2021/12/16 08:55:48;;;;;;;8.23;2.40;;;20.70;99.90;;;;;;4995078;28;20182;-68
2021/12/16 08:58:16;;;;;;;11.93;2.80;;;20.70;99.90;;;;;;4994868;28;20537;-71
2021/12/16 09:01:05;;;;;;;8.97;2.70;;;20.70;99.90;;;;;;5002127;28;20660;-69
2021/12/16 09:03:34;;;;;;;17.40;3.37;;;20.70;99.90;;;;;;5013750;28;20242;-68
2021/12/16 09:06:03;;;;;;;8.63;2.93;;;20.60;99.90;;;;;;5014517;28;20177;-68
2021/12/16 09:08:31;;;;;;;8.37;2.90;;;20.70;99.90;;;;;;4998693;28;20258;-69
2021/12/16 09:11:03;;;;;;;8.20;2.80;;;20.60;99.90;;;;;;5004635;28;20187;-68
2021/12/16 09:13:33;;;;;;;6.07;2.30;;;20.60;99.90;;;;;;5014620;28;20183;-71
2021/12/16 09:16:04;;;;;;;10.80;3.10;;;20.60;99.90;;;;;;4996541;28;20191;-71
2021/12/16 09:18:34;;;;;;;10.50;2.90;;;20.60;99.90;;;;;;4996690;28;20698;-72
2021/12/16 09:21:04;;;;;;;7.37;2.50;;;20.60;99.90;;;;;;5003751;28;20213;-70
2021/12/16 09:23:32;;;;;;;10.37;1.97;;;20.60;99.90;;;;;;4994678;28;20176;-69
2021/12/16 09:25:59;;;;;;;11.90;3.30;;;20.60;99.90;;;;;;4977153;28;20213;-71
2021/12/16 09:28:27;;;;;;;12.23;3.63;;;20.60;99.90;;;;;;5003233;28;20182;-71
2021/12/16 09:30:56;;;;;;;14.70;3.13;;;20.70;99.90;;;;;;5003762;28;20234;-72
2021/12/16 09:33:26;;;;;;;12.67;3.30;;;20.70;99.90;;;;;;5020666;28;20178;-73
2021/12/16 09:35:58;;;;;;;7.43;2.80;;;20.60;99.90;;;;;;5001160;28;20245;-72
2021/12/16 09:38:26;;;;;;;7.83;2.83;;;20.60;99.90;;;;;;4994421;28;20222;-71
2021/12/16 09:40:56;;;;;;;7.50;2.73;;;20.60;99.90;;;;;;4988929;28;20198;-70
2021/12/16 09:43:29;;;;;;;11.10;3.13;;;20.60;99.90;;;;;;5014002;28;20209;-72
2021/12/16 09:46:05;;;;;;;11.37;2.90;;;20.60;99.90;;;;;;5014036;28;20178;-73
2021/12/16 09:48:35;;;;;;;8.67;2.43;;;20.60;99.90;;;;;;4996336;28;20187;-69
2021/12/16 09:51:06;;;;;;;7.53;2.47;;;20.70;99.90;;;;;;5000070;28;20194;-72
2021/12/16 09:53:36;;;;;;;10.80;3.30;;;20.60;99.90;;;;;;4994233;28;20229;-72
2021/12/16 09:56:08;;;;;;;8.20;2.90;;;20.50;99.90;;;;;;4976132;28;20198;-71
2021/12/16 10:01:28;;;;;;;9.97;3.57;;;20.60;99.90;;;;;;5005128;28;20195;-70
2021/12/16 10:04:03;;;;;;;9.70;3.30;;;20.50;99.90;;;;;;4976534;28;20195;-70
2021/12/16 10:06:39;;;;;;;9.33;2.90;;;20.50;99.90;;;;;;4976610;28;20626;-70
2021/12/16 10:09:09;;;;;;;7.97;2.80;;;20.40;99.90;;;;;;4997337;28;20283;-70
2021/12/16 10:11:39;;;;;;;10.80;2.73;;;20.40;99.90;;;;;;4997586;28;20261;-69
2021/12/16 10:19:31;;;;;;;19.57;2.77;;;20.40;99.90;;;;;;4994445;28;20182;-70
2021/12/16 10:22:22;;;;;;;18.13;2.83;;;20.40;99.90;;;;;;4983217;28;20195;-71
2021/12/16 10:24:52;;;;;;;10.97;2.83;;;20.40;99.90;;;;;;5003855;28;20258;-71
2021/12/16 10:27:24;;;;;;;12.63;2.73;;;20.30;99.90;;;;;;4996336;28;20190;-71
2021/12/16 10:29:59;;;;;;;9.50;3.33;;;20.30;99.90;;;;;;4992592;28;20323;-72
2021/12/16 10:32:39;;;;;;;10.90;3.60;;;20.20;99.90;;;;;;5013544;28;20178;-70
2021/12/16 10:35:25;;;;;;;9.93;2.33;;;20.20;99.90;;;;;;5004596;28;20179;-72
2021/12/16 10:37:59;;;;;;;11.70;2.90;;;20.10;99.90;;;;;;5004021;28;20305;-71
2021/12/16 10:40:50;;;;;;;6.40;2.60;;;20.10;99.90;;;;;;4993926;28;20253;-70
2021/12/16 10:43:36;;;;;;;12.60;3.60;;;20.00;99.90;;;;;;4976061;28;20199;-69
2021/12/16 10:46:08;;;;;;;7.53;2.50;;;19.90;99.90;;;;;;5012069;28;20193;-69
2021/12/16 10:48:43;;;;;;;8.27;2.63;;;19.90;99.90;;;;;;4995742;28;20246;-70
2021/12/16 10:51:23;;;;;;;10.13;3.00;;;20.00;99.90;;;;;;5004283;28;20189;-69
2021/12/16 10:53:54;;;;;;;10.17;2.70;;;20.00;99.90;;;;;;4984913;28;20191;-72
2021/12/16 10:56:27;;;;;;;6.47;2.30;;;20.00;99.90;;;;;;4993846;28;20197;-70
2021/12/16 10:59:19;;;;;;;8.43;2.40;;;19.90;99.90;;;;;;4993791;28;20558;-69
2021/12/16 11:01:51;;;;;;;12.30;2.67;;;20.00;99.90;;;;;;4993412;28;20204;-70
2021/12/16 11:04:24;;;;;;;11.93;3.13;;;19.90;99.90;;;;;;4995200;28;20187;-70
2021/12/16 11:07:01;;;;;;;10.90;2.83;;;19.90;99.90;;;;;;4993560;28;20216;-70
2021/12/16 11:09:43;;;;;;;10.13;3.33;;;19.80;99.90;;;;;;4996902;28;20168;-71
2021/12/16 11:12:19;;;;;;;15.47;2.83;;;19.70;99.90;;;;;;4996405;28;20198;-71
2021/12/16 11:15:09;;;;;;;8.83;2.60;;;19.80;99.90;;;;;;5001529;28;20181;-71
2021/12/16 11:17:42;;;;;;;8.67;2.77;;;19.80;99.90;;;;;;5015806;28;20602;-70
2021/12/16 11:20:32;;;;;;;8.37;2.50;;;19.80;99.90;;;;;;4999123;28;20185;-71
2021/12/16 11:23:10;;;;;;;6.90;2.70;;;19.80;99.90;;;;;;5008400;28;20190;-72
2021/12/16 11:26:02;;;;;;;11.20;2.80;;;19.70;99.90;;;;;;5008099;28;20213;-70
2021/12/16 11:28:36;;;;;;;7.33;2.33;;;19.80;99.90;;;;;;4994335;28;20664;-71
2021/12/16 11:34:10;;;;;;;9.73;2.27;;;19.80;99.90;;;;;;5016238;28;20591;-70
2021/12/16 11:36:46;;;;;;;8.97;2.37;;;19.90;99.90;;;;;;4999335;28;20297;-72
2021/12/16 11:39:19;;;;;;;7.17;2.37;;;19.90;99.90;;;;;;4996490;28;20217;-71
2021/12/16 11:42:01;;;;;;;9.00;2.20;;;19.90;99.90;;;;;;4996754;28;20171;-71
2021/12/16 11:44:32;;;;;;;6.77;2.47;;;19.90;99.90;;;;;;4979242;28;20560;-71
2021/12/16 11:47:17;;;;;;;7.67;2.90;;;20.00;99.90;;;;;;4997519;28;20190;-71
2021/12/16 11:49:51;;;;;;;9.80;2.80;;;19.90;99.90;;;;;;5011683;28;20232;-71
2021/12/16 11:52:30;;;;;;;10.00;2.00;;;20.00;99.90;;;;;;5004685;28;20676;-71
2021/12/16 11:55:01;;;;;;;8.93;2.53;;;19.90;99.90;;;;;;4996778;28;20207;-71
2021/12/16 11:57:33;;;;;;;7.77;2.17;;;19.90;99.90;;;;;;4996294;28;20230;-72
2021/12/16 12:00:07;;;;;;;8.20;2.40;;;20.00;99.90;;;;;;4996531;28;20265;-71
2021/12/16 12:02:42;;;;;;;6.83;2.13;;;20.00;99.90;;;;;;4996186;28;20649;-71
2021/12/16 12:05:37;;;;;;;10.10;2.60;;;19.90;99.90;;;;;;4997233;28;20545;-72
2021/12/16 12:08:12;;;;;;;7.67;2.27;;;20.00;99.90;;;;;;4978743;28;20210;-70
2021/12/16 12:10:42;;;;;;;8.83;2.30;;;19.90;99.90;;;;;;4996280;28;20209;-70
2021/12/16 12:13:14;;;;;;;7.87;2.00;;;20.00;99.90;;;;;;4995871;28;20277;-72
2021/12/16 12:16:12;;;;;;;7.53;2.30;;;20.00;99.90;;;;;;5006747;28;20269;-72
2021/12/16 12:18:54;;;;;;;7.33;2.27;;;20.00;99.90;;;;;;5005586;28;20222;-73
2021/12/16 12:21:28;;;;;;;7.00;2.17;;;19.90;99.90;;;;;;4996822;28;20174;-71
2021/12/16 12:24:24;;;;;;;9.60;2.40;;;20.00;99.90;;;;;;5000645;28;20192;-71
2021/12/16 12:26:55;;;;;;;7.20;2.90;;;19.90;99.90;;;;;;5008672;28;20206;-71
2021/12/16 12:29:40;;;;;;;10.33;2.60;;;19.90;99.90;;;;;;5014935;28;20305;-70
2021/12/16 12:32:31;;;;;;;12.77;2.47;;;19.80;99.90;;;;;;4995693;28;20197;-71
2021/12/16 12:35:20;;;;;;;6.33;2.47;;;19.90;99.90;;;;;;4995577;28;20176;-71
2021/12/16 12:37:52;;;;;;;8.00;2.40;;;19.90;99.90;;;;;;4995781;28;20301;-70
2021/12/16 12:40:25;;;;;;;12.43;2.63;;;19.90;99.90;;;;;;5005522;28;20186;-70
2021/12/16 12:42:54;;;;;;;8.90;2.90;;;19.90;99.90;;;;;;4995405;28;20182;-71
2021/12/16 12:45:27;;;;;;;8.73;2.57;;;19.90;99.90;;;;;;4999114;28;20167;-71
2021/12/16 12:47:58;;;;;;;10.10;2.27;;;19.80;99.90;;;;;;4995497;28;20193;-70
2021/12/16 12:50:38;;;;;;;10.13;2.50;;;19.80;99.90;;;;;;5005669;28;20193;-70
2021/12/16 12:53:47;;;;;;;6.33;2.33;;;19.90;99.90;;;;;;5014925;28;20635;-70
2021/12/16 12:56:33;;;;;;;8.30;2.63;;;19.80;99.90;;;;;;4990033;28;20285;-70
2021/12/16 12:59:06;;;;;;;9.23;3.00;;;19.80;99.90;;;;;;5015407;28;20193;-71
2021/12/16 13:01:38;;;;;;;10.43;2.47;;;19.90;99.90;;;;;;5014258;28;20273;-70
2021/12/16 13:04:22;;;;;;;10.27;2.97;;;19.80;99.90;;;;;;5014935;28;20174;-70
2021/12/16 13:07:06;;;;;;;7.80;2.50;;;19.80;99.90;;;;;;4998786;28;20179;-70
2021/12/16 13:09:43;;;;;;;7.17;2.17;;;19.80;99.90;;;;;;4997743;28;20815;-71
2021/12/16 13:12:41;;;;;;;9.80;2.23;;;19.80;99.90;;;;;;5014323;28;20182;-71
2021/12/16 13:15:24;;;;;;;8.23;2.60;;;19.80;99.90;;;;;;4996600;28;20171;-71
2021/12/16 13:23:37;;;;;;;10.83;2.17;;;19.70;99.90;;;;;;5014535;28;20196;-70
2021/12/16 13:29:07;;;;;;;14.77;2.73;;;19.70;99.90;;;;;;4994512;28;20586;-69
2021/12/16 13:31:50;;;;;;;10.77;2.80;;;19.60;99.90;;;;;;5012597;28;20561;-71
2021/12/16 13:34:34;;;;;;;7.50;2.70;;;19.60;99.90;;;;;;5013735;28;20173;-69
2021/12/16 13:37:20;;;;;;;12.20;2.83;;;19.70;99.90;;;;;;5014225;28;20208;-70
2021/12/16 13:39:50;;;;;;;7.67;3.07;;;19.60;99.90;;;;;;5011932;28;20202;-71
2021/12/16 13:42:18;;;;;;;10.90;2.90;;;19.50;99.90;;;;;;4976818;28;20179;-71
2021/12/16 13:45:08;;;;;;;8.50;3.30;;;19.50;99.90;;;;;;4994528;28;20184;-70
2021/12/16 13:48:00;;;;;;;9.97;3.03;;;19.50;99.90;;;;;;4995365;28;20183;-69
2021/12/16 14:05:50;;;;;;;8.30;2.73;;;19.20;99.90;;;;;;4953635;29;20691;-71
2021/12/16 14:08:52;;;;;;;9.73;3.17;;;19.20;99.90;;;;;;4953412;28;20192;-71
2021/12/16 14:12:31;;;;;;;10.83;3.33;;;19.20;99.90;;;;;;5008118;28;20343;-72
2021/12/16 14:14:50;;;;;;;11.53;2.73;;;19.10;99.90;;;;;;5012110;28;20296;-71
2021/12/16 14:23:29;;;;;;;17.97;3.33;;;19.00;99.90;;;;;;5013516;28;20323;-70
2021/12/16 14:26:36;;;;;;;11.53;3.33;;;19.00;99.90;;;;;;5013568;28;20178;-70
2021/12/16 14:35:04;;;;;;;8.57;2.83;;;18.90;99.90;;;;;;5010935;28;20613;-71
2021/12/16 14:37:49;;;;;;;10.93;2.70;;;19.00;99.90;;;;;;4994734;28;20300;-70
2021/12/16 14:45:53;;;;;;;9.07;2.83;;;18.80;99.90;;;;;;5017178;28;20210;-71
2021/12/16 14:50:58;;;;;;;10.87;3.10;;;18.90;99.90;;;;;;5003031;28;20655;-70
2021/12/16 14:53:28;;;;;;;7.87;3.03;;;18.80;99.90;;;;;;5001884;28;20647;-71
2021/12/16 14:56:04;;;;;;;13.47;3.63;;;18.90;99.90;;;;;;5016832;28;20202;-70
2021/12/16 15:01:25;;;;;;;10.97;3.10;;;18.70;99.90;;;;;;4999539;28;20190;-70
2021/12/16 15:03:53;;;;;;;11.00;3.67;;;18.70;99.90;;;;;;4997270;28;20190;-70
2021/12/16 15:06:28;;;;;;;11.47;3.37;;;18.70;99.90;;;;;;4997293;28;20183;-70
2021/12/16 15:45:34;;;;;;;8.07;3.27;;;18.90;99.90;;;;;;4996584;28;20593;-70
2021/12/16 15:48:13;;;;;;;10.87;3.70;;;18.90;99.90;;;;;;4978905;28;20179;-70
2021/12/16 15:50:47;;;;;;;5.03;2.80;;;18.80;99.90;;;;;;5010564;28;20177;-69
2021/12/16 15:53:19;;;;;;;8.97;3.20;;;18.80;99.90;;;;;;5015594;28;20632;-71
2021/12/16 15:55:55;;;;;;;8.80;2.93;;;18.80;99.90;;;;;;4998194;28;20236;-70
2021/12/16 15:58:28;;;;;;;11.40;3.90;;;18.80;99.90;;;;;;5014958;28;20228;-70
2021/12/16 16:01:10;;;;;;;9.13;3.00;;;18.80;99.90;;;;;;4998238;28;20178;-70
2021/12/16 16:03:39;;;;;;;13.63;3.00;;;18.80;99.90;;;;;;4996146;28;20188;-71
2021/12/16 16:06:09;;;;;;;13.33;3.63;;;18.80;99.90;;;;;;5008565;28;20264;-69
2021/12/16 16:08:42;;;;;;;6.63;2.97;;;18.80;99.90;;;;;;5015717;28;20643;-70
2021/12/16 16:11:16;;;;;;;10.70;3.20;;;18.80;99.90;;;;;;5015531;28;20209;-70
2021/12/16 16:13:50;;;;;;;13.63;3.50;;;18.80;99.90;;;;;;4998532;28;20179;-69
2021/12/16 16:16:21;;;;;;;6.87;3.27;;;18.80;99.90;;;;;;5006176;28;20643;-70
2021/12/16 16:18:55;;;;;;;9.93;3.33;;;18.70;99.90;;;;;;4998055;28;20221;-69
2021/12/16 16:21:32;;;;;;;15.07;3.40;;;18.70;99.90;;;;;;4997886;28;20549;-70
2021/12/16 16:24:09;;;;;;;7.63;3.17;;;18.70;99.90;;;;;;5015460;28;20196;-69
2021/12/16 16:29:29;;;;;;;9.90;3.43;;;18.70;99.90;;;;;;5015265;28;20308;-70
2021/12/16 16:31:58;;;;;;;7.57;3.40;;;18.70;99.90;;;;;;5005296;28;20687;-70
2021/12/16 16:34:39;;;;;;;17.77;4.23;;;18.70;99.90;;;;;;4995451;28;20225;-70
2021/12/16 16:37:08;;;;;;;12.73;3.33;;;18.70;99.90;;;;;;5000003;28;20208;-70
2021/12/16 16:39:42;;;;;;;13.17;3.90;;;18.80;99.90;;;;;;4995726;28;20194;-70
2021/12/16 16:42:14;;;;;;;14.50;3.67;;;18.80;99.90;;;;;;5015088;28;20695;-70
2021/12/16 16:44:48;;;;;;;9.70;3.40;;;18.80;99.90;;;;;;5014806;28;20193;-70
2021/12/16 16:47:34;;;;;;;10.27;3.40;;;18.80;99.90;;;;;;5013740;28;20193;-71
2021/12/16 16:50:05;;;;;;;8.87;3.50;;;18.80;99.90;;;;;;5014956;28;20651;-70
2021/12/16 16:52:40;;;;;;;15.73;3.10;;;18.80;99.90;;;;;;5013270;28;20627;-70
2021/12/16 16:55:11;;;;;;;7.97;3.40;;;18.80;99.90;;;;;;4995128;28;20663;-68
2021/12/16 16:57:45;;;;;;;10.67;3.27;;;18.80;99.90;;;;;;4995198;28;20702;-69
2021/12/16 17:00:21;;;;;;;8.67;3.47;;;18.80;99.90;;;;;;5007901;28;20180;-69
2021/12/16 17:02:54;;;;;;;12.20;3.53;;;18.80;99.90;;;;;;5014853;28;20239;-70
2021/12/16 17:05:34;;;;;;;8.17;2.97;;;18.80;99.90;;;;;;5014662;28;20605;-70